Time;durP1;ratioP1;P1;durP2;ratioP2;P2;SDS_P1;SDS_P2;PMS_P1;PMS_P2;Temp;Humidity;BMP_temperature;BMP_pressure;BME280_temperature;BME280_humidity;BME280_pressure;Samples;Min_cycle;Max_cycle;Signal;HPM_P1;HPM_P2
2022/07/17 00:00:22;;;;;;;0.28;0.22;;;;;;;;;;5096430;28;20434;-81
2022/07/17 00:02:48;;;;;;;0.20;0.10;;;;;;;;;;5094850;28;20485;-82
2022/07/17 00:05:14;;;;;;;0.25;0.25;;;;;;;;;;5096062;28;20164;-80
2022/07/17 00:07:39;;;;;;;0.17;0.17;;;;;;;;;;5096239;28;20035;-82
2022/07/17 00:10:05;;;;;;;0.17;0.10;;;;;;;;;;5096372;28;20028;-82
2022/07/17 00:12:33;;;;;;;1.67;1.08;;;;;;;;;;5096564;28;20676;-81
2022/07/17 00:14:59;;;;;;;1.92;0.80;;;;;;;;;;5075638;28;20028;-82
2022/07/17 00:17:24;;;;;;;0.30;0.17;;;;;;;;;;5075775;28;20422;-81
2022/07/17 00:19:49;;;;;;;0.90;0.20;;;;;;;;;;5085108;28;20027;-80
2022/07/17 00:22:15;;;;;;;1.40;0.50;;;;;;;;;;5096142;28;20050;-81
2022/07/17 00:24:42;;;;;;;0.10;0.10;;;;;;;;;;5095466;28;20090;-82
2022/07/17 00:27:10;;;;;;;0.20;0.20;;;;;;;;;;5096342;28;20024;-82
2022/07/17 00:29:42;;;;;;;6.32;0.30;;;;;;;;;;5078576;28;20024;-81
2022/07/17 00:32:07;;;;;;;1.20;0.45;;;;;;;;;;5078187;28;20476;-82
2022/07/17 00:34:35;;;;;;;0.60;0.40;;;;;;;;;;5094565;28;20040;-80
2022/07/17 00:37:00;;;;;;;0.15;0.15;;;;;;;;;;5095709;28;20028;-82
2022/07/17 00:39:26;;;;;;;0.20;0.20;;;;;;;;;;5095656;28;20031;-81
2022/07/17 00:41:52;;;;;;;0.20;0.20;;;;;;;;;;5095685;28;20028;-82
2022/07/17 00:44:20;;;;;;;0.50;0.40;;;;;;;;;;5095708;28;20027;-81
2022/07/17 00:46:53;;;;;;;2.10;0.35;;;;;;;;;;5095633;28;20023;-82
2022/07/17 00:49:23;;;;;;;0.03;0.03;;;;;;;;;;5094426;28;20028;-82
2022/07/17 00:51:50;;;;;;;0.10;0.10;;;;;;;;;;5095362;28;20020;-81
2022/07/17 00:54:17;;;;;;;1.55;0.68;;;;;;;;;;5095074;28;20028;-80
2022/07/17 00:56:46;;;;;;;1.00;0.30;;;;;;;;;;5093703;28;20027;-81
2022/07/17 00:59:16;;;;;;;0.73;0.60;;;;;;;;;;5093752;28;20361;-82
2022/07/17 01:01:44;;;;;;;0.15;0.15;;;;;;;;;;5093089;28;20046;-81
2022/07/17 01:04:10;;;;;;;5.55;0.77;;;;;;;;;;5085722;28;20031;-82
2022/07/17 01:06:37;;;;;;;0.68;0.45;;;;;;;;;;5093895;28;20027;-82
2022/07/17 01:09:05;;;;;;;0.10;0.10;;;;;;;;;;5095075;28;20107;-82
2022/07/17 01:11:31;;;;;;;0.32;0.32;;;;;;;;;;5094163;28;20346;-81
2022/07/17 01:13:56;;;;;;;0.30;0.20;;;;;;;;;;5094596;28;20071;-86
2022/07/17 01:16:24;;;;;;;0.10;0.10;;;;;;;;;;5093811;28;20023;-82
2022/07/17 01:18:49;;;;;;;1.13;0.77;;;;;;;;;;5088985;28;20024;-83
2022/07/17 01:21:15;;;;;;;0.32;0.30;;;;;;;;;;5082740;28;20093;-82
2022/07/17 01:23:48;;;;;;;0.10;0.10;;;;;;;;;;5094615;28;20024;-82
2022/07/17 01:26:18;;;;;;;0.43;0.20;;;;;;;;;;5094694;28;20024;-83
2022/07/17 01:28:45;;;;;;;0.25;0.25;;;;;;;;;;5094972;28;20111;-82
2022/07/17 01:31:13;;;;;;;2.95;0.65;;;;;;;;;;5093638;28;20024;-83
2022/07/17 01:33:38;;;;;;;0.68;0.47;;;;;;;;;;5094380;28;20087;-83
2022/07/17 01:36:06;;;;;;;1.75;0.85;;;;;;;;;;5089007;28;20518;-83
2022/07/17 01:38:34;;;;;;;2.45;0.47;;;;;;;;;;5093187;28;20031;-82
2022/07/17 01:41:02;;;;;;;0.60;0.60;;;;;;;;;;5093717;28;20024;-83
2022/07/17 01:43:32;;;;;;;1.65;0.73;;;;;;;;;;5094658;28;20024;-83
2022/07/17 01:45:59;;;;;;;0.95;0.13;;;;;;;;;;5094929;28;20024;-83
2022/07/17 01:48:29;;;;;;;1.35;0.30;;;;;;;;;;5093762;28;20028;-83
2022/07/17 01:50:55;;;;;;;0.60;0.30;;;;;;;;;;5093564;28;20077;-84
2022/07/17 01:53:25;;;;;;;0.40;0.40;;;;;;;;;;5094642;28;20028;-84
2022/07/17 01:55:52;;;;;;;0.70;0.70;;;;;;;;;;5094575;28;20032;-83
2022/07/17 01:58:23;;;;;;;1.20;0.25;;;;;;;;;;5072077;28;20373;-82
2022/07/17 02:00:48;;;;;;;0.40;0.20;;;;;;;;;;5083575;28;20020;-83
2022/07/17 02:03:13;;;;;;;3.50;0.73;;;;;;;;;;5095942;28;20111;-84
2022/07/17 02:05:39;;;;;;;1.45;0.57;;;;;;;;;;5097145;28;20056;-84
2022/07/17 02:08:07;;;;;;;1.63;0.88;;;;;;;;;;5098340;28;20036;-83
2022/07/17 02:10:35;;;;;;;2.85;0.60;;;;;;;;;;5097777;28;20024;-83
2022/07/17 02:13:00;;;;;;;0.40;0.22;;;;;;;;;;5097596;28;20403;-83
2022/07/17 02:15:26;;;;;;;10.25;0.68;;;;;;;;;;5095118;28;20060;-83
2022/07/17 02:17:51;;;;;;;0.47;0.47;;;;;;;;;;5097100;28;20129;-83
2022/07/17 02:20:17;;;;;;;4.18;0.30;;;;;;;;;;5097869;28;20034;-83
2022/07/17 02:22:45;;;;;;;1.88;0.88;;;;;;;;;;5097411;28;20067;-80
2022/07/17 02:25:13;;;;;;;0.20;0.20;;;;;;;;;;5098384;28;20035;-81
2022/07/17 02:27:40;;;;;;;0.90;0.55;;;;;;;;;;5097199;28;20052;-81
2022/07/17 02:30:08;;;;;;;1.75;0.85;;;;;;;;;;5084581;28;20032;-80
2022/07/17 02:32:36;;;;;;;0.22;0.22;;;;;;;;;;5077667;28;20024;-81
2022/07/17 02:35:02;;;;;;;0.57;0.25;;;;;;;;;;5099971;28;20020;-81
2022/07/17 02:37:28;;;;;;;0.20;0.10;;;;;;;;;;5097797;28;20028;-81
2022/07/17 02:39:53;;;;;;;0.82;0.30;;;;;;;;;;5096962;28;20123;-83
2022/07/17 02:42:23;;;;;;;0.30;0.30;;;;;;;;;;5097897;28;20449;-83
2022/07/17 02:44:53;;;;;;;0.20;0.20;;;;;;;;;;5096060;28;20333;-84
2022/07/17 02:47:22;;;;;;;0.32;0.32;;;;;;;;;;5097531;28;20027;-84
2022/07/17 02:49:53;;;;;;;0.03;0.03;;;;;;;;;;5097786;28;20411;-83
2022/07/17 02:52:21;;;;;;;0.30;0.10;;;;;;;;;;5096646;28;20115;-84
2022/07/17 02:54:46;;;;;;;5.13;0.60;;;;;;;;;;5090259;28;20020;-83
2022/07/17 02:57:15;;;;;;;4.43;1.10;;;;;;;;;;5093715;28;20111;-83
2022/07/17 02:59:58;;;;;;;1.95;0.55;;;;;;;;;;5093986;28;20016;-82
2022/07/17 03:02:26;;;;;;;1.38;0.28;;;;;;;;;;5092829;28;20032;-82
2022/07/17 03:04:51;;;;;;;0.95;0.50;;;;;;;;;;5096502;28;20046;-82
2022/07/17 03:11:16;;;;;;;0.25;0.25;;;;;;;;;;5085046;28;20422;-83
2022/07/17 03:13:41;;;;;;;1.75;1.17;;;;;;;;;;5094391;28;20024;-81
2022/07/17 03:16:11;;;;;;;0.63;0.38;;;;;;;;;;5092869;28;20030;-81
2022/07/17 03:18:39;;;;;;;0.45;0.32;;;;;;;;;;5095595;28;20110;-82
2022/07/17 03:21:05;;;;;;;2.05;0.40;;;;;;;;;;5095948;28;20419;-82
2022/07/17 03:23:33;;;;;;;1.20;0.65;;;;;;;;;;5094926;28;20078;-82
2022/07/17 03:26:00;;;;;;;1.00;0.75;;;;;;;;;;5094008;28;20024;-83
2022/07/17 03:28:25;;;;;;;0.85;0.50;;;;;;;;;;5095168;28;20466;-81
2022/07/17 03:30:51;;;;;;;0.82;0.82;;;;;;;;;;5095596;28;20080;-82
2022/07/17 03:33:19;;;;;;;1.77;0.40;;;;;;;;;;5093711;28;20025;-81
2022/07/17 03:35:46;;;;;;;0.20;0.20;;;;;;;;;;5096410;28;20059;-81
2022/07/17 03:38:18;;;;;;;1.67;0.47;;;;;;;;;;5095229;28;20035;-82
2022/07/17 03:40:44;;;;;;;0.70;0.60;;;;;;;;;;5094430;28;20024;-79
2022/07/17 03:43:09;;;;;;;0.35;0.30;;;;;;;;;;5095400;28;20126;-80
2022/07/17 03:45:38;;;;;;;0.88;0.50;;;;;;;;;;5096291;28;20016;-80
2022/07/17 03:48:03;;;;;;;0.65;0.63;;;;;;;;;;5095376;28;20028;-80
2022/07/17 03:50:31;;;;;;;0.63;0.40;;;;;;;;;;5096448;28;20080;-81
2022/07/17 03:52:58;;;;;;;0.22;0.22;;;;;;;;;;5094506;28;20039;-81
2022/07/17 03:55:28;;;;;;;1.48;0.68;;;;;;;;;;5095782;28;20039;-81
2022/07/17 03:57:56;;;;;;;1.67;0.77;;;;;;;;;;5096272;28;20065;-81
2022/07/17 04:00:24;;;;;;;0.85;0.63;;;;;;;;;;5109133;28;20448;-80
2022/07/17 04:02:51;;;;;;;1.55;1.05;;;;;;;;;;5095262;28;20020;-81
2022/07/17 04:05:19;;;;;;;0.52;0.43;;;;;;;;;;5094241;28;20024;-80
2022/07/17 04:07:44;;;;;;;1.33;0.85;;;;;;;;;;5094079;28;20095;-80
2022/07/17 04:10:11;;;;;;;0.55;0.32;;;;;;;;;;5074891;28;20155;-80
2022/07/17 04:12:37;;;;;;;1.42;0.52;;;;;;;;;;5093249;28;20103;-80
2022/07/17 04:15:03;;;;;;;2.08;0.73;;;;;;;;;;5096072;28;20570;-81
2022/07/17 04:17:29;;;;;;;1.08;0.40;;;;;;;;;;5084739;28;20366;-81
2022/07/17 04:19:54;;;;;;;1.15;0.73;;;;;;;;;;5089978;28;20039;-81
2022/07/17 04:22:22;;;;;;;3.38;0.98;;;;;;;;;;5094750;28;20108;-81
2022/07/17 04:24:47;;;;;;;0.30;0.30;;;;;;;;;;5092909;28;20028;-80
2022/07/17 04:27:15;;;;;;;0.60;0.43;;;;;;;;;;5078131;28;20042;-81
2022/07/17 04:29:43;;;;;;;0.50;0.50;;;;;;;;;;5095034;28;20039;-82
2022/07/17 04:32:09;;;;;;;0.77;0.40;;;;;;;;;;5095826;28;20020;-81
2022/07/17 04:34:34;;;;;;;2.35;0.52;;;;;;;;;;5094663;28;20024;-81
2022/07/17 04:37:01;;;;;;;1.25;0.60;;;;;;;;;;5094363;28;20032;-81
2022/07/17 04:39:28;;;;;;;0.98;0.60;;;;;;;;;;5094108;28;20012;-81
2022/07/17 04:41:56;;;;;;;1.33;0.70;;;;;;;;;;5095664;28;20047;-81
2022/07/17 04:44:24;;;;;;;0.50;0.50;;;;;;;;;;5095785;28;20020;-81
2022/07/17 04:46:49;;;;;;;0.43;0.30;;;;;;;;;;5094291;28;20039;-81
2022/07/17 04:49:15;;;;;;;0.98;0.60;;;;;;;;;;5094433;28;20345;-82
2022/07/17 04:51:42;;;;;;;3.33;0.65;;;;;;;;;;5095204;28;20036;-80
2022/07/17 04:54:08;;;;;;;0.63;0.63;;;;;;;;;;5091727;28;20051;-80
2022/07/17 04:56:33;;;;;;;0.60;0.50;;;;;;;;;;5094366;28;20437;-80
2022/07/17 04:58:59;;;;;;;0.63;0.50;;;;;;;;;;5094566;28;20028;-80
2022/07/17 05:01:29;;;;;;;1.55;0.60;;;;;;;;;;5095445;28;20024;-81
2022/07/17 05:03:54;;;;;;;0.60;0.60;;;;;;;;;;5093117;28;20020;-82
2022/07/17 05:06:19;;;;;;;2.47;0.68;;;;;;;;;;5095251;28;20023;-82
2022/07/17 05:08:45;;;;;;;1.17;0.50;;;;;;;;;;5094697;28;20039;-82
2022/07/17 05:11:10;;;;;;;4.90;0.55;;;;;;;;;;5094131;28;20460;-82
2022/07/17 05:13:36;;;;;;;1.33;0.65;;;;;;;;;;5093855;28;20050;-82
2022/07/17 05:16:03;;;;;;;1.25;0.52;;;;;;;;;;5095102;28;20035;-82
2022/07/17 05:18:29;;;;;;;3.70;0.80;;;;;;;;;;5094769;28;20349;-81
2022/07/17 05:20:55;;;;;;;0.95;0.40;;;;;;;;;;5094223;28;20032;-82
2022/07/17 05:23:22;;;;;;;0.30;0.20;;;;;;;;;;5086844;28;20024;-82
2022/07/17 05:25:51;;;;;;;0.43;0.43;;;;;;;;;;5095007;28;20023;-81
2022/07/17 05:28:18;;;;;;;2.15;0.88;;;;;;;;;;5093993;28;20047;-80
2022/07/17 05:30:45;;;;;;;3.60;1.20;;;;;;;;;;5073539;28;20024;-80
2022/07/17 05:33:16;;;;;;;0.25;0.25;;;;;;;;;;5087290;28;20399;-81
2022/07/17 05:35:43;;;;;;;0.73;0.38;;;;;;;;;;5094981;28;20023;-82
2022/07/17 05:38:10;;;;;;;2.88;1.10;;;;;;;;;;5092360;28;20032;-81
2022/07/17 05:40:38;;;;;;;0.98;0.22;;;;;;;;;;5094132;28;20426;-81
2022/07/17 05:43:08;;;;;;;0.45;0.45;;;;;;;;;;5093207;28;20081;-80
2022/07/17 05:45:38;;;;;;;5.88;0.55;;;;;;;;;;5093745;28;20441;-82
2022/07/17 05:48:06;;;;;;;0.63;0.50;;;;;;;;;;5093576;28;20594;-82
2022/07/17 05:50:34;;;;;;;2.15;1.20;;;;;;;;;;5094738;28;20099;-82
2022/07/17 05:53:02;;;;;;;3.38;0.95;;;;;;;;;;5082938;28;20033;-80
2022/07/17 05:55:27;;;;;;;2.72;0.63;;;;;;;;;;5076973;28;20071;-82
2022/07/17 05:57:55;;;;;;;0.50;0.50;;;;;;;;;;5094654;28;20043;-82
2022/07/17 06:00:22;;;;;;;0.57;0.57;;;;;;;;;;5093596;28;20122;-83
2022/07/17 06:02:53;;;;;;;0.20;0.20;;;;;;;;;;5094630;28;20436;-82
2022/07/17 06:05:21;;;;;;;0.40;0.40;;;;;;;;;;5092954;28;20062;-85
2022/07/17 06:07:49;;;;;;;5.05;0.98;;;;;;;;;;5093081;28;20020;-80
2022/07/17 06:10:15;;;;;;;0.47;0.47;;;;;;;;;;5093579;28;20016;-83
2022/07/17 06:12:40;;;;;;;0.73;0.30;;;;;;;;;;5093529;28;20028;-82
2022/07/17 06:15:08;;;;;;;0.88;0.47;;;;;;;;;;5093626;28;20035;-82
2022/07/17 06:17:34;;;;;;;0.52;0.40;;;;;;;;;;5093210;28;20032;-82
2022/07/17 06:19:59;;;;;;;0.40;0.40;;;;;;;;;;5093055;28;20024;-83
2022/07/17 06:22:24;;;;;;;0.40;0.40;;;;;;;;;;5089388;28;20441;-82
2022/07/17 06:24:55;;;;;;;0.63;0.40;;;;;;;;;;5093025;28;20051;-82
2022/07/17 06:27:21;;;;;;;5.15;0.40;;;;;;;;;;5094407;28;20097;-82
2022/07/17 06:29:47;;;;;;;0.32;0.30;;;;;;;;;;5093218;28;20449;-83
2022/07/17 06:32:15;;;;;;;0.65;0.50;;;;;;;;;;5092800;28;20105;-81
2022/07/17 06:34:40;;;;;;;0.65;0.43;;;;;;;;;;5085857;28;20024;-82
2022/07/17 06:37:06;;;;;;;0.40;0.40;;;;;;;;;;5093726;28;20038;-82
2022/07/17 06:39:37;;;;;;;1.83;0.20;;;;;;;;;;5093343;28;20197;-81
2022/07/17 06:42:02;;;;;;;0.20;0.20;;;;;;;;;;5092313;28;20453;-84
2022/07/17 06:44:30;;;;;;;0.40;0.40;;;;;;;;;;5093424;28;20028;-82
2022/07/17 06:46:55;;;;;;;3.30;0.77;;;;;;;;;;5086733;28;20024;-83
2022/07/17 06:49:23;;;;;;;0.82;0.45;;;;;;;;;;5079845;28;20035;-82
2022/07/17 06:51:48;;;;;;;0.17;0.10;;;;;;;;;;5091305;28;20024;-83
2022/07/17 06:54:16;;;;;;;1.65;0.20;;;;;;;;;;5098157;28;20046;-82
2022/07/17 06:56:44;;;;;;;0.20;0.20;;;;;;;;;;5097017;28;20111;-80
2022/07/17 06:59:22;;;;;;;2.65;1.02;;;;;;;;;;5101015;28;20027;-82
2022/07/17 07:01:48;;;;;;;3.38;1.15;;;;;;;;;;5095829;28;20032;-81
2022/07/17 07:04:13;;;;;;;2.78;0.95;;;;;;;;;;5097058;28;20097;-82
2022/07/17 07:06:39;;;;;;;2.47;0.52;;;;;;;;;;5097783;28;20019;-81
2022/07/17 07:09:04;;;;;;;1.63;0.60;;;;;;;;;;5098417;28;20385;-82
2022/07/17 07:11:31;;;;;;;0.70;0.30;;;;;;;;;;5096231;28;20437;-83
2022/07/17 07:14:00;;;;;;;0.68;0.43;;;;;;;;;;5096065;28;20036;-80
2022/07/17 07:16:26;;;;;;;0.98;0.30;;;;;;;;;;5096613;28;20020;-81
2022/07/17 07:19:06;;;;;;;0.22;0.22;;;;;;;;;;5095765;28;20051;-82
2022/07/17 07:21:57;;;;;;;0.75;0.40;;;;;;;;;;5094839;28;20069;-83
2022/07/17 07:24:22;;;;;;;8.23;1.02;;;;;;;;;;5096837;28;20101;-82
2022/07/17 07:26:48;;;;;;;1.67;0.60;;;;;;;;;;5078852;28;20056;-82
2022/07/17 07:29:34;;;;;;;2.45;0.30;;;;;;;;;;5095860;28;20437;-81
2022/07/17 07:32:09;;;;;;;1.13;0.47;;;;;;;;;;5062619;28;20123;-81
2022/07/17 07:34:38;;;;;;;0.40;0.40;;;;;;;;;;5096778;28;20027;-81
2022/07/17 07:37:03;;;;;;;0.55;0.38;;;;;;;;;;5095886;28;20077;-81
2022/07/17 07:39:29;;;;;;;0.30;0.30;;;;;;;;;;5095046;28;20036;-83
2022/07/17 07:41:55;;;;;;;1.20;0.60;;;;;;;;;;5096476;28;20028;-82
2022/07/17 07:44:20;;;;;;;2.22;0.88;;;;;;;;;;5096686;28;20093;-81
2022/07/17 07:46:48;;;;;;;0.30;0.20;;;;;;;;;;5096549;28;20107;-80
2022/07/17 07:49:15;;;;;;;1.55;1.08;;;;;;;;;;5077063;28;20043;-81
2022/07/17 07:51:42;;;;;;;0.15;0.15;;;;;;;;;;5096154;28;20345;-78
2022/07/17 07:54:11;;;;;;;0.10;0.10;;;;;;;;;;5090843;28;20381;-82
2022/07/17 07:56:36;;;;;;;0.30;0.30;;;;;;;;;;5097171;28;20338;-81
2022/07/17 07:59:02;;;;;;;1.02;0.75;;;;;;;;;;5096338;28;20028;-80
2022/07/17 08:01:28;;;;;;;0.20;0.20;;;;;;;;;;5096839;28;20036;-79
2022/07/17 08:03:56;;;;;;;0.55;0.30;;;;;;;;;;5096982;28;20039;-80
2022/07/17 08:06:21;;;;;;;0.85;0.30;;;;;;;;;;5096907;28;20024;-81
2022/07/17 08:08:46;;;;;;;0.38;0.22;;;;;;;;;;5102788;28;20358;-80
2022/07/17 08:11:12;;;;;;;0.80;0.45;;;;;;;;;;5098772;28;20023;-79
2022/07/17 08:13:41;;;;;;;3.03;0.70;;;;;;;;;;5099318;28;20489;-79
2022/07/17 08:16:06;;;;;;;0.40;0.40;;;;;;;;;;5098283;28;20020;-80
2022/07/17 08:18:35;;;;;;;0.15;0.15;;;;;;;;;;5099807;28;20346;-80
2022/07/17 08:21:00;;;;;;;0.20;0.20;;;;;;;;;;5076707;28;20536;-80
2022/07/17 08:23:27;;;;;;;0.45;0.45;;;;;;;;;;5061036;28;20041;-80
2022/07/17 08:25:52;;;;;;;0.80;0.75;;;;;;;;;;5077672;28;20119;-81
2022/07/17 08:28:20;;;;;;;0.15;0.15;;;;;;;;;;5076171;28;20457;-80
2022/07/17 08:30:46;;;;;;;0.65;0.40;;;;;;;;;;5073916;28;20446;-80
2022/07/17 08:33:11;;;;;;;0.30;0.30;;;;;;;;;;5072552;28;20047;-81
2022/07/17 08:35:37;;;;;;;0.20;0.20;;;;;;;;;;5074973;28;20028;-80
2022/07/17 08:38:03;;;;;;;0.30;0.30;;;;;;;;;;5075494;28;20032;-81
2022/07/17 08:40:33;;;;;;;0.98;0.65;;;;;;;;;;5077371;28;20045;-82
2022/07/17 08:43:03;;;;;;;0.32;0.30;;;;;;;;;;5062054;28;20032;-80
2022/07/17 08:45:31;;;;;;;0.20;0.20;;;;;;;;;;5074496;28;20446;-79
2022/07/17 08:48:00;;;;;;;0.90;0.60;;;;;;;;;;5055461;28;20449;-81
2022/07/17 08:50:32;;;;;;;0.70;0.52;;;;;;;;;;5072812;28;20068;-80
2022/07/17 08:52:57;;;;;;;;;;;;;;;;;;5073025;28;20138;-79
2022/07/17 08:55:25;;;;;;;0.77;0.63;;;;;;;;;;5073058;28;19920;-79
2022/07/17 08:57:50;;;;;;;0.50;0.30;;;;;;;;;;5073230;28;20374;-83
2022/07/17 09:00:18;;;;;;;0.10;0.10;;;;;;;;;;5086986;28;20039;-81
2022/07/17 09:03:05;;;;;;;0.30;0.20;;;;;;;;;;5089354;28;20081;-82
2022/07/17 09:05:36;;;;;;;0.38;0.38;;;;;;;;;;5094482;28;20069;-81
2022/07/17 09:08:02;;;;;;;0.28;0.28;;;;;;;;;;5092462;28;20076;-82
2022/07/17 09:10:33;;;;;;;1.17;0.22;;;;;;;;;;5093978;28;20030;-81
2022/07/17 09:13:00;;;;;;;0.20;0.20;;;;;;;;;;5094144;28;20374;-80
2022/07/17 09:15:25;;;;;;;0.40;0.40;;;;;;;;;;5093676;28;20035;-80
2022/07/17 09:17:54;;;;;;;0.60;0.40;;;;;;;;;;5093354;28;20020;-80
2022/07/17 09:20:21;;;;;;;0.17;0.17;;;;;;;;;;5088874;28;20080;-80
2022/07/17 09:23:03;;;;;;;0.60;0.40;;;;;;;;;;5093710;28;20082;-80
2022/07/17 09:25:40;;;;;;;0.43;0.17;;;;;;;;;;5094377;28;20032;-80
2022/07/17 09:28:08;;;;;;;2.35;0.45;;;;;;;;;;5093916;28;20421;-80
2022/07/17 09:30:42;;;;;;;0.35;0.35;;;;;;;;;;5093750;28;20020;-80
2022/07/17 09:33:11;;;;;;;0.85;0.35;;;;;;;;;;5093235;28;20024;-79
2022/07/17 09:35:53;;;;;;;0.40;0.40;;;;;;;;;;5093608;28;20059;-79
2022/07/17 09:38:33;;;;;;;1.27;0.68;;;;;;;;;;5089084;28;20024;-80
2022/07/17 09:41:11;;;;;;;0.22;0.22;;;;;;;;;;5093391;28;20039;-79
2022/07/17 09:43:42;;;;;;;0.30;0.30;;;;;;;;;;5091422;28;20039;-81
2022/07/17 09:46:08;;;;;;;0.57;0.57;;;;;;;;;;5093107;28;20453;-81
2022/07/17 09:48:39;;;;;;;0.40;0.30;;;;;;;;;;5093024;28;20101;-81
2022/07/17 09:51:07;;;;;;;0.57;0.20;;;;;;;;;;5088429;28;20418;-81
2022/07/17 09:53:38;;;;;;;0.30;0.30;;;;;;;;;;5092961;28;20093;-81
2022/07/17 09:56:05;;;;;;;0.93;0.20;;;;;;;;;;5075882;28;20028;-80
2022/07/17 09:58:39;;;;;;;0.68;0.30;;;;;;;;;;5072558;28;20028;-80
2022/07/17 10:01:07;;;;;;;2.42;0.50;;;;;;;;;;5083860;28;20036;-81
2022/07/17 10:03:33;;;;;;;0.35;0.35;;;;;;;;;;5089724;28;20074;-80
2022/07/17 10:05:58;;;;;;;0.68;0.30;;;;;;;;;;5092486;28;20108;-81
2022/07/17 10:08:26;;;;;;;0.30;0.30;;;;;;;;;;5085347;28;20043;-82
2022/07/17 10:10:54;;;;;;;0.10;0.10;;;;;;;;;;5090125;28;20036;-81
2022/07/17 10:13:22;;;;;;;0.57;0.52;;;;;;;;;;5074168;28;20112;-82
2022/07/17 10:15:47;;;;;;;0.30;0.30;;;;;;;;;;5086589;28;20024;-85
2022/07/17 10:18:12;;;;;;;0.38;0.35;;;;;;;;;;5092433;28;20039;-83
2022/07/17 10:20:38;;;;;;;0.30;0.30;;;;;;;;;;5094089;28;20024;-82
2022/07/17 10:23:14;;;;;;;3.25;0.80;;;;;;;;;;5090268;28;20016;-84
2022/07/17 10:25:40;;;;;;;0.20;0.20;;;;;;;;;;5080361;28;20402;-85
2022/07/17 10:28:07;;;;;;;0.20;0.20;;;;;;;;;;5094258;28;20429;-82
2022/07/17 10:30:33;;;;;;;0.63;0.60;;;;;;;;;;5095342;28;20027;-83
2022/07/17 10:33:00;;;;;;;0.38;0.38;;;;;;;;;;5098380;28;20039;-84
2022/07/17 10:35:29;;;;;;;0.43;0.20;;;;;;;;;;5097900;28;20422;-83
2022/07/17 10:38:10;;;;;;;0.28;0.28;;;;;;;;;;5097854;28;20031;-81
2022/07/17 10:40:35;;;;;;;0.43;0.43;;;;;;;;;;5094574;28;20024;-80
2022/07/17 10:43:22;;;;;;;0.80;0.60;;;;;;;;;;5090388;28;20097;-83
2022/07/17 10:45:47;;;;;;;0.63;0.50;;;;;;;;;;5089503;28;20626;-81
2022/07/17 10:48:24;;;;;;;1.30;0.50;;;;;;;;;;5095588;28;20107;-84
2022/07/17 10:50:55;;;;;;;0.35;0.25;;;;;;;;;;5095573;28;20345;-85
2022/07/17 10:53:31;;;;;;;0.75;0.68;;;;;;;;;;5072881;28;20501;-79
2022/07/17 10:56:04;;;;;;;0.25;0.25;;;;;;;;;;5095423;28;20346;-89
2022/07/17 10:58:33;;;;;;;0.47;0.47;;;;;;;;;;5075769;28;20044;-82
2022/07/17 11:01:09;;;;;;;0.40;0.40;;;;;;;;;;5092349;28;20024;-84
2022/07/17 11:06:40;;;;;;;0.30;0.30;;;;;;;;;;5091420;28;20039;-86
2022/07/17 11:09:21;;;;;;;0.30;0.30;;;;;;;;;;5089824;28;20028;-84
2022/07/17 11:12:07;;;;;;;0.98;0.40;;;;;;;;;;5103324;28;20024;-86
2022/07/17 11:14:42;;;;;;;0.10;0.10;;;;;;;;;;5085707;28;20028;-85
2022/07/17 11:17:29;;;;;;;0.95;0.63;;;;;;;;;;5069802;28;20028;-87
2022/07/17 11:20:04;;;;;;;0.20;0.20;;;;;;;;;;5085835;28;20032;-86
2022/07/17 11:22:29;;;;;;;0.20;0.20;;;;;;;;;;5086994;28;20020;-82
2022/07/17 11:24:55;;;;;;;0.50;0.45;;;;;;;;;;5087616;28;20043;-83
2022/07/17 11:27:28;;;;;;;1.52;0.47;;;;;;;;;;5096364;28;20020;-85
2022/07/17 11:29:56;;;;;;;0.57;0.40;;;;;;;;;;5089994;28;20439;-85
2022/07/17 11:32:42;;;;;;;0.30;0.30;;;;;;;;;;5091529;28;20079;-84
2022/07/17 11:35:19;;;;;;;0.20;0.20;;;;;;;;;;5085166;28;20036;-84
2022/07/17 11:37:48;;;;;;;0.50;0.30;;;;;;;;;;5092724;28;20111;-86
2022/07/17 11:40:21;;;;;;;0.85;0.85;;;;;;;;;;5107746;28;20032;-85
2022/07/17 11:42:46;;;;;;;0.32;0.30;;;;;;;;;;5093652;28;20068;-85
2022/07/17 11:45:16;;;;;;;0.55;0.30;;;;;;;;;;5088251;28;20028;-84
2022/07/17 11:47:48;;;;;;;0.20;0.20;;;;;;;;;;5077044;28;20024;-85
2022/07/17 11:50:18;;;;;;;1.95;0.77;;;;;;;;;;5092332;28;20028;-84
2022/07/17 11:52:45;;;;;;;0.52;0.40;;;;;;;;;;5091939;28;20020;-82
2022/07/17 11:55:11;;;;;;;0.47;0.30;;;;;;;;;;5076292;28;20036;-85
2022/07/17 11:57:44;;;;;;;0.30;0.30;;;;;;;;;;5072237;28;20034;-83
2022/07/17 12:00:10;;;;;;;0.40;0.40;;;;;;;;;;5094607;28;20027;-84
2022/07/17 12:02:35;;;;;;;0.40;0.30;;;;;;;;;;5094866;28;20104;-84
2022/07/17 12:05:04;;;;;;;4.68;0.88;;;;;;;;;;5095503;28;20020;-84
2022/07/17 12:07:40;;;;;;;0.40;0.28;;;;;;;;;;5094183;28;20059;-83
2022/07/17 12:10:18;;;;;;;0.45;0.45;;;;;;;;;;5094157;28;20032;-87
2022/07/17 12:12:53;;;;;;;0.65;0.30;;;;;;;;;;5095282;28;20038;-88
2022/07/17 12:15:21;;;;;;;0.40;0.40;;;;;;;;;;5093841;28;20024;-89
2022/07/17 12:17:48;;;;;;;0.25;0.25;;;;;;;;;;5077820;28;20035;-84
2022/07/17 12:20:13;;;;;;;0.40;0.40;;;;;;;;;;5077234;28;20123;-88
2022/07/17 12:22:48;;;;;;;0.80;0.60;;;;;;;;;;5069756;28;20043;-86
2022/07/17 12:25:25;;;;;;;1.38;0.40;;;;;;;;;;5060804;28;20102;-86
2022/07/17 12:27:50;;;;;;;0.95;0.60;;;;;;;;;;5087056;28;20108;-86
2022/07/17 12:30:25;;;;;;;0.52;0.40;;;;;;;;;;5081324;28;20059;-83
2022/07/17 12:32:50;;;;;;;0.50;0.47;;;;;;;;;;5063767;28;20055;-82
2022/07/17 12:35:16;;;;;;;1.10;0.30;;;;;;;;;;5073909;28;20072;-82
2022/07/17 12:37:56;;;;;;;0.32;0.30;;;;;;;;;;5048845;28;20047;-84
2022/07/17 12:40:43;;;;;;;0.68;0.60;;;;;;;;;;5068546;28;20043;-85
2022/07/17 12:43:09;;;;;;;0.65;0.65;;;;;;;;;;5065309;28;20072;-80
2022/07/17 12:45:34;;;;;;;0.52;0.47;;;;;;;;;;5066692;28;20481;-84
2022/07/17 12:48:02;;;;;;;0.20;0.20;;;;;;;;;;5036785;28;20132;-85
2022/07/17 12:50:38;;;;;;;0.30;0.30;;;;;;;;;;5065037;28;20032;-86
2022/07/17 12:53:06;;;;;;;0.40;0.22;;;;;;;;;;5097935;28;20016;-86
2022/07/17 12:55:34;;;;;;;0.20;0.20;;;;;;;;;;5098337;28;20055;-81
2022/07/17 12:57:59;;;;;;;0.32;0.32;;;;;;;;;;5092898;28;20040;-82
2022/07/17 13:00:25;;;;;;;0.20;0.20;;;;;;;;;;5093216;28;20441;-83
2022/07/17 13:02:50;;;;;;;0.30;0.30;;;;;;;;;;5087557;28;20345;-83
2022/07/17 13:05:16;;;;;;;0.17;0.15;;;;;;;;;;5084571;28;20030;-83
2022/07/17 13:07:41;;;;;;;0.55;0.30;;;;;;;;;;5088427;28;20061;-81
2022/07/17 13:10:09;;;;;;;0.20;0.20;;;;;;;;;;5086784;28;20477;-81
2022/07/17 13:12:35;;;;;;;0.88;0.30;;;;;;;;;;5085469;28;20134;-85
2022/07/17 13:15:02;;;;;;;0.40;0.20;;;;;;;;;;5087180;28;20125;-84
2022/07/17 13:17:27;;;;;;;0.20;0.20;;;;;;;;;;5086908;28;20031;-89
2022/07/17 13:19:55;;;;;;;3.03;0.55;;;;;;;;;;5088530;28;20035;-86
2022/07/17 13:22:20;;;;;;;0.38;0.32;;;;;;;;;;5087916;28;20111;-85
2022/07/17 13:24:45;;;;;;;0.17;0.17;;;;;;;;;;5088160;28;20161;-86
2022/07/17 13:27:14;;;;;;;0.57;0.47;;;;;;;;;;5087384;28;20047;-87
2022/07/17 13:29:42;;;;;;;0.20;0.20;;;;;;;;;;5085798;28;20064;-87
2022/07/17 13:32:08;;;;;;;0.20;0.20;;;;;;;;;;5085907;28;20028;-86
2022/07/17 13:34:36;;;;;;;0.30;0.30;;;;;;;;;;5081235;28;20070;-85
2022/07/17 13:37:02;;;;;;;0.30;0.30;;;;;;;;;;5103897;28;20052;-83
2022/07/17 13:39:27;;;;;;;0.30;0.20;;;;;;;;;;5085399;28;20071;-89
2022/07/17 13:41:54;;;;;;;0.30;0.30;;;;;;;;;;5088627;28;20074;-85
2022/07/17 13:44:20;;;;;;;0.10;0.10;;;;;;;;;;5087014;28;20441;-87
2022/07/17 13:46:45;;;;;;;0.22;0.22;;;;;;;;;;5084027;28;20156;-86
2022/07/17 13:49:10;;;;;;;0.20;0.20;;;;;;;;;;5075647;28;20107;-88
2022/07/17 13:51:39;;;;;;;0.75;0.63;;;;;;;;;;5090791;28;20024;-82
2022/07/17 13:54:05;;;;;;;0.28;0.28;;;;;;;;;;5086405;28;20107;-89
2022/07/17 13:56:32;;;;;;;1.23;0.70;;;;;;;;;;5088901;28;20119;-87
2022/07/17 13:58:58;;;;;;;1.02;0.60;;;;;;;;;;5088474;28;20456;-82
2022/07/17 14:01:24;;;;;;;0.50;0.35;;;;;;;;;;5088636;28;20032;-85
2022/07/17 14:03:51;;;;;;;2.60;0.47;;;;;;;;;;5087232;28;20025;-87
2022/07/17 14:06:19;;;;;;;1.02;0.75;;;;;;;;;;5085825;28;20028;-87
2022/07/17 14:08:47;;;;;;;0.25;0.20;;;;;;;;;;5087049;28;20089;-84
2022/07/17 14:11:13;;;;;;;0.20;0.20;;;;;;;;;;5090644;28;20530;-83
2022/07/17 14:13:43;;;;;;;0.30;0.30;;;;;;;;;;5090282;28;20049;-83
2022/07/17 14:16:09;;;;;;;0.88;0.30;;;;;;;;;;5088771;28;20370;-83
2022/07/17 14:18:35;;;;;;;0.55;0.50;;;;;;;;;;5087168;28;20043;-81
2022/07/17 14:21:00;;;;;;;1.00;0.52;;;;;;;;;;5084832;28;20035;-82
2022/07/17 14:23:25;;;;;;;0.60;0.40;;;;;;;;;;5084828;28;20690;-81
2022/07/17 14:25:53;;;;;;;1.83;0.55;;;;;;;;;;5071741;28;20038;-82
2022/07/17 14:28:21;;;;;;;0.10;0.10;;;;;;;;;;5086769;28;20082;-82
2022/07/17 14:30:46;;;;;;;0.70;0.65;;;;;;;;;;5085895;28;20491;-82
2022/07/17 14:33:14;;;;;;;1.55;0.52;;;;;;;;;;5087059;28;20043;-82
2022/07/17 14:35:41;;;;;;;0.20;0.20;;;;;;;;;;5085425;28;20035;-82
2022/07/17 14:38:07;;;;;;;0.32;0.20;;;;;;;;;;5085589;28;20027;-82
2022/07/17 14:40:32;;;;;;;0.57;0.30;;;;;;;;;;5087830;28;20020;-80
2022/07/17 14:43:02;;;;;;;0.40;0.30;;;;;;;;;;5085337;28;20166;-83
2022/07/17 14:45:28;;;;;;;0.40;0.40;;;;;;;;;;5084686;28;20616;-82
2022/07/17 14:47:53;;;;;;;0.35;0.35;;;;;;;;;;5088127;28;20179;-82
2022/07/17 14:50:19;;;;;;;0.43;0.30;;;;;;;;;;5087666;28;20036;-80
2022/07/17 14:52:44;;;;;;;0.30;0.25;;;;;;;;;;5085115;28;20143;-82
2022/07/17 14:55:09;;;;;;;0.80;0.65;;;;;;;;;;5089740;28;20084;-82